Horse Shoe, NC

1:22 PM EDT on April 18, 2015 (GMT -0400)
Camp Ton-A-Wandah | | Change Station
CLOSE
Current Station
Personal Weather Station
Location: Hendersonville, NC
Elevation: 2336 ft
Nearby Weather Stations

Elev 2336 ft 35.26 °N, 82.48 °W | Updated 3 minutes ago

Partly Cloudy
Partly Cloudy
71.6 °F
Feels Like 75 °F
N
0.0
Wind Variable Wind from ESE

Today
High -- | Low -- °F
--% Chance of Precip.
Yesterday
High -- | Low -- °F
Precip. -- in
6:54 AM 8:05 PM
Waning Crescent, 0% visible
Pressure 29.98 in
Visibility 10.0 miles
Clouds Few 4000 ft
Mostly Cloudy 6000 ft
Overcast 8500 ft
Heat Index 75 °F
Dew Point 59 °F
Humidity 64%
Rainfall 0.01 in
Snow Depth Not available.
UV 3 out of 12
Pollen 9.60 out of 12
Air Quality Not available.
Flu Activity Sporadic
METAR KAVL 181654Z VRB03KT 10SM FEW040 BKN060 OVC085 22/12 A3004 RMK AO2 SLP151 T02220122

More Conditions Fewer Conditions

Pressure 29.98 in
Visibility 10.0 miles
Clouds Few 4000 ft
Mostly Cloudy 6000 ft
Overcast 8500 ft
Heat Index 75 °F
Dew Point 59 °F
Humidity 64%
Rainfall 0.01 in
Snow Depth Not available.
UV 3 out of 12
Pollen 9.60 out of 12
Air Quality Not available.
Flu Activity Sporadic
METAR KAVL 181654Z VRB03KT 10SM FEW040 BKN060 OVC085 22/12 A3004 RMK AO2 SLP151 T02220122

More Conditions Fewer Conditions

10-Day Weather Forecast

Almanac

Astronomy

Apr. 18, 2015 Rise Set
Actual Time
Civil Twilight
Nautical Twilight
Astronomical Twilight
Moon
Length of Visible Light
Length of Day
Tomorrow will be .
, % of the Moon is Illuminated

Today's Extremes

State Highs State Lows

Community

WunderPhotos

Upload Photos

1,814,467 photos uploaded!

WunderBlogs® & News

Nearby

Air Quality

  Air Quality AQ Index Pollutant
Not available.

Snow Depth

Station Depth Elevation

Earthquake Activity

City Distance Mag. Time & Date
Minimum magnitude displayed is 2.5.

Coastal Water Temperatures

Place Temperature

Stations

Nearby Weather Stations

Station Location Temp. Windchill Dew Point Humidity Wind Precip. Elev Updated Type